Time;durP1;ratioP1;P1;durP2;ratioP2;P2;SDS_P1;SDS_P2;PMS_P1;PMS_P2;Temp;Humidity;BMP_temperature;BMP_pressure;BME280_temperature;BME280_humidity;BME280_pressure;Samples;Min_cycle;Max_cycle;Signal;HPM_P1;HPM_P2
2022/05/27 00:02:06;;;;;;;1.80;1.50;;;21.50;41.80;;;19.23;44.94;101067.22;12245345;19;20025;-80
2022/05/27 00:06:08;;;;;;;2.97;2.25;;;21.40;41.90;;;19.37;45.07;101101.28;12243544;19;20019;-80
2022/05/27 00:10:12;;;;;;;1.55;1.35;;;21.40;42.20;;;19.42;45.32;101107.03;12241784;19;20010;-80
2022/05/27 00:14:14;;;;;;;2.97;1.63;;;21.30;42.50;;;19.04;45.27;101046.78;12240737;19;20028;-80
2022/05/27 00:18:16;;;;;;;1.98;1.67;;;21.20;42.80;;;19.38;45.47;101113.56;12243469;19;20011;-80
2022/05/27 00:22:18;;;;;;;5.10;1.85;;;21.00;43.00;;;19.18;46.08;101087.97;12243543;19;20410;-80
2022/05/27 00:26:19;;;;;;;2.08;1.58;;;21.20;43.50;;;19.13;46.25;101096.28;12242273;19;20028;-80
2022/05/27 00:30:21;;;;;;;3.25;2.35;;;21.10;43.80;;;19.02;46.56;101107.78;12242710;19;20417;-81
2022/05/27 00:34:23;;;;;;;1.67;1.58;;;21.00;44.10;;;19.01;46.74;101118.53;12238055;19;20483;-82
2022/05/27 00:38:24;;;;;;;2.05;1.85;;;21.00;44.50;;;18.78;46.81;101100.13;12239901;19;20110;-81
2022/05/27 00:42:26;;;;;;;3.83;2.60;;;20.90;44.60;;;18.58;47.10;101077.94;12238933;19;20022;-81
2022/05/27 00:46:32;;;;;;;5.47;2.42;;;20.60;44.80;;;18.63;47.59;101092.59;12239577;19;20010;-81
2022/05/27 00:50:37;;;;;;;3.55;2.30;;;20.70;45.40;;;18.58;47.55;101075.31;12237952;19;20496;-81
2022/05/27 00:54:40;;;;;;;4.00;2.10;;;20.60;45.60;;;18.55;47.54;101091.44;12238124;19;20054;-81
2022/05/27 00:58:58;;;;;;;4.00;2.30;;;20.50;45.60;;;18.50;48.30;101080.41;12241098;19;20006;-80
2022/05/27 01:03:01;;;;;;;2.28;2.08;;;20.20;45.90;;;18.33;48.15;101063.28;12238150;19;20023;-81
2022/05/27 01:07:04;;;;;;;3.13;2.55;;;20.40;46.10;;;17.96;48.43;101020.53;12238986;19;20006;-80
2022/05/27 01:11:36;;;;;;;2.47;2.30;;;20.30;46.20;;;18.30;48.50;101089.13;12238602;19;20014;-80
2022/05/27 01:15:59;;;;;;;2.85;2.35;;;20.20;46.80;;;18.20;48.86;101077.63;12241532;19;20066;-81
2022/05/27 01:20:22;;;;;;;3.35;2.17;;;20.00;46.70;;;17.97;48.92;101039.88;12241108;19;20031;-80
2022/05/27 01:24:58;;;;;;;3.17;2.08;;;20.10;47.20;;;18.02;49.36;101051.72;12235595;19;20011;-81
2022/05/27 01:29:23;;;;;;;2.40;2.03;;;20.00;47.60;;;18.07;49.32;101056.66;12228285;19;20059;-80
2022/05/27 01:33:44;;;;;;;2.57;1.80;;;19.90;47.70;;;18.03;49.56;101056.03;12237802;19;20014;-80
2022/05/27 01:38:18;;;;;;;2.92;2.22;;;19.60;47.80;;;17.68;49.63;100996.28;12236092;19;20656;-80
2022/05/27 01:42:40;;;;;;;2.33;2.13;;;19.70;48.00;;;17.98;49.88;101045.00;12238392;19;20360;-80
2022/05/27 01:46:45;;;;;;;3.92;2.17;;;19.90;48.30;;;17.92;49.59;101040.22;12238308;19;20682;-80
2022/05/27 01:51:28;;;;;;;2.33;2.07;;;19.80;48.00;;;17.89;49.68;101014.06;12234909;19;20002;-80
2022/05/27 01:55:40;;;;;;;3.15;2.17;;;19.80;48.40;;;18.01;49.90;101038.63;12231903;19;20388;-80
2022/05/27 02:00:20;;;;;;;3.70;2.47;;;19.70;48.30;;;17.60;50.06;100977.59;12237951;19;20010;-80
2022/05/27 02:04:30;;;;;;;2.45;2.25;;;19.80;48.60;;;17.85;50.21;101028.50;12235943;19;20035;-80
2022/05/27 02:08:53;;;;;;;2.70;2.50;;;20.00;48.70;;;17.85;50.34;101028.50;12236057;19;20019;-80
2022/05/27 02:13:21;;;;;;;2.22;2.08;;;19.70;48.70;;;17.81;50.79;101027.88;12241529;19;20088;-80
2022/05/27 02:17:31;;;;;;;5.35;2.65;;;19.70;48.90;;;17.55;50.44;100981.56;12246223;19;20010;-80
2022/05/27 02:21:47;;;;;;;2.70;2.50;;;19.70;48.80;;;17.70;50.62;101012.88;12248722;19;20011;-80
2022/05/27 02:25:51;;;;;;;2.25;2.15;;;19.70;49.00;;;17.58;50.37;100991.88;12248490;19;20048;-80
2022/05/27 02:29:59;;;;;;;5.28;2.75;;;19.60;48.70;;;17.46;51.13;100968.16;12247085;19;20014;-80
2022/05/27 02:38:32;;;;;;;2.58;2.38;;;19.50;49.40;;;17.69;50.85;101010.38;12247699;19;20018;-80
2022/05/27 02:43:12;;;;;;;3.55;2.80;;;19.60;49.20;;;17.73;51.17;101013.59;12245943;19;20543;-80
2022/05/27 02:48:01;;;;;;;2.72;2.50;;;19.60;49.70;;;17.68;51.11;101016.59;12249728;19;20014;-80
2022/05/27 02:52:29;;;;;;;2.13;2.03;;;19.60;49.80;;;17.68;51.33;101027.16;12246440;19;20010;-80
2022/05/27 02:56:58;;;;;;;2.40;2.20;;;19.50;49.60;;;17.68;51.73;101030.63;12245948;19;20018;-80
2022/05/27 03:00:59;;;;;;;3.10;2.10;;;19.60;49.60;;;17.34;51.17;100957.75;12247006;19;20019;-80
2022/05/27 03:05:01;;;;;;;2.38;2.17;;;19.40;49.40;;;17.64;51.15;101005.44;12245795;19;20491;-80
2022/05/27 03:09:22;;;;;;;3.22;2.75;;;19.50;49.60;;;17.47;51.89;100982.19;12242626;19;20025;-80
2022/05/27 03:14:12;;;;;;;2.83;2.63;;;19.50;49.80;;;17.55;51.76;100993.00;12242826;19;20535;-80
2022/05/27 03:18:51;;;;;;;2.60;2.40;;;19.30;50.50;;;17.54;51.67;100985.19;12244606;19;20356;-80
2022/05/27 03:23:23;;;;;;;3.15;2.08;;;19.50;50.30;;;17.68;51.96;101013.94;12243904;19;20018;-80
2022/05/27 03:27:53;;;;;;;2.92;1.98;;;19.50;50.20;;;17.60;51.65;100996.06;12243980;19;20033;-80
2022/05/27 03:32:15;;;;;;;3.58;2.25;;;19.40;50.30;;;17.54;52.02;100975.44;12241417;19;20488;-81
2022/05/27 03:36:43;;;;;;;2.17;2.03;;;19.40;50.20;;;17.76;52.32;101008.88;12243981;19;20018;-80
2022/05/27 03:41:20;;;;;;;2.58;2.28;;;19.50;50.20;;;17.75;52.01;101001.94;12245689;19;20406;-80
2022/05/27 03:45:24;;;;;;;3.10;2.17;;;19.60;50.40;;;17.45;51.88;100950.63;12238196;19;20025;-81
2022/05/27 03:49:27;;;;;;;2.67;2.45;;;19.50;50.10;;;17.71;51.88;101008.41;12240713;19;20041;-80
2022/05/27 03:57:48;;;;;;;2.70;2.15;;;19.60;50.00;;;17.48;52.20;100970.66;12242364;19;20021;-80
2022/05/27 04:01:54;;;;;;;2.75;2.22;;;19.60;50.00;;;17.66;52.20;101005.31;12243202;19;20201;-80
2022/05/27 04:05:55;;;;;;;2.55;2.08;;;19.60;50.20;;;17.63;52.24;100990.56;12241089;19;20014;-81
2022/05/27 04:09:57;;;;;;;3.20;2.42;;;19.40;50.10;;;17.70;52.30;101007.59;12243407;19;20500;-80
2022/05/27 04:13:59;;;;;;;2.42;2.17;;;19.60;50.20;;;17.35;52.29;100946.22;12241347;19;20614;-80
2022/05/27 04:18:00;;;;;;;2.95;2.10;;;19.60;50.30;;;17.70;52.44;100996.19;12241769;19;20408;-80
2022/05/27 04:22:03;;;;;;;2.95;2.42;;;19.60;50.30;;;17.67;52.54;100993.78;12242369;19;20089;-80
2022/05/27 04:26:05;;;;;;;2.55;2.00;;;19.60;50.40;;;17.66;52.61;100990.31;12241311;19;20018;-81
2022/05/27 04:30:09;;;;;;;2.47;2.28;;;19.40;50.40;;;17.58;52.62;100974.25;12239497;19;20046;-80
2022/05/27 04:34:11;;;;;;;5.15;2.53;;;19.60;50.50;;;17.66;52.69;100995.59;12237443;19;20018;-81
2022/05/27 04:38:13;;;;;;;2.30;2.10;;;19.80;50.60;;;17.70;52.60;101002.31;12236126;19;20010;-80
2022/05/27 04:42:15;;;;;;;3.15;2.30;;;19.50;50.60;;;17.34;52.79;100926.06;12235212;19;20010;-81
2022/05/27 04:46:16;;;;;;;2.78;2.30;;;19.60;50.80;;;17.54;52.61;100953.50;12237283;19;20022;-80
2022/05/27 04:50:19;;;;;;;4.22;1.95;;;19.40;50.60;;;17.62;53.01;100978.31;12233710;19;20006;-82
2022/05/27 04:54:21;;;;;;;2.33;2.08;;;19.60;50.80;;;17.57;52.91;100956.72;12233417;19;20021;-81
2022/05/27 04:58:23;;;;;;;2.38;2.17;;;19.60;50.80;;;17.71;52.94;100982.00;12234772;19;20509;-82
2022/05/27 05:02:25;;;;;;;2.35;2.15;;;19.50;50.70;;;17.75;53.04;100993.19;12233986;19;20021;-81
2022/05/27 05:06:27;;;;;;;3.50;2.25;;;19.60;50.80;;;17.61;53.04;100981.09;12232806;19;20045;-81
2022/05/27 05:10:30;;;;;;;3.20;2.08;;;19.60;51.00;;;17.64;53.02;100975.56;12233247;19;20086;-82
2022/05/27 05:14:32;;;;;;;3.92;2.28;;;19.60;50.90;;;17.62;53.22;100969.56;12231984;19;20484;-81
2022/05/27 05:18:33;;;;;;;2.45;1.90;;;19.40;50.90;;;17.68;53.26;100974.34;12233281;19;20025;-81
2022/05/27 05:22:35;;;;;;;3.97;2.13;;;19.50;50.90;;;17.72;53.35;100986.34;12233950;19;20036;-82
2022/05/27 05:26:37;;;;;;;2.67;1.90;;;19.60;50.90;;;17.71;53.36;100997.84;12235900;19;20431;-82
2022/05/27 05:30:39;;;;;;;2.58;2.05;;;19.70;51.10;;;17.71;53.30;101013.69;12231715;19;20030;-82
2022/05/27 05:34:41;;;;;;;2.67;2.28;;;19.70;51.10;;;17.50;53.44;100984.59;12232540;19;20050;-82
2022/05/27 05:38:42;;;;;;;3.22;2.33;;;19.70;51.20;;;17.40;53.31;100957.25;12233232;19;20010;-82
2022/05/27 05:42:46;;;;;;;2.03;1.77;;;19.70;51.20;;;17.77;53.57;101030.84;12232127;19;20024;-81
2022/05/27 05:46:49;;;;;;;2.33;1.88;;;19.50;51.20;;;17.55;53.72;101002.69;12234321;19;20014;-82
2022/05/27 05:50:50;;;;;;;3.05;1.45;;;19.60;51.10;;;17.54;53.43;101006.31;12242006;19;20542;-82
2022/05/27 05:54:52;;;;;;;3.88;1.40;;;19.60;50.70;;;17.43;53.66;101015.09;12241399;19;20014;-82
2022/05/27 05:58:54;;;;;;;1.10;0.95;;;19.40;50.30;;;17.44;53.25;101033.47;12243281;19;20086;-81
2022/05/27 06:02:56;;;;;;;3.53;0.98;;;19.20;49.70;;;17.24;53.36;101023.63;12243734;19;20356;-81
2022/05/27 06:06:57;;;;;;;2.15;0.88;;;19.10;49.60;;;16.77;53.50;100954.31;12243223;19;20014;-81
2022/05/27 06:10:59;;;;;;;1.58;0.88;;;19.20;49.70;;;16.71;53.41;100916.00;12242527;19;20010;-80
2022/05/27 06:15:04;;;;;;;3.25;1.23;;;19.20;50.00;;;17.08;53.65;100980.91;12239724;19;20026;-81
2022/05/27 06:19:06;;;;;;;0.70;0.70;;;18.90;49.90;;;17.11;53.29;101002.63;12246136;19;20019;-81
2022/05/27 06:23:08;;;;;;;1.92;0.95;;;19.10;50.00;;;16.92;53.58;100970.72;12242816;19;20137;-81
2022/05/27 06:27:10;;;;;;;2.00;0.90;;;19.00;50.00;;;16.96;53.35;100988.00;12244729;19;20017;-81
2022/05/27 06:35:32;;;;;;;2.17;0.70;;;18.90;49.80;;;16.87;53.36;100980.78;12239144;19;20042;-82
2022/05/27 06:39:37;;;;;;;2.13;1.20;;;19.10;49.90;;;16.84;53.38;100973.94;12242603;19;20014;-83
2022/05/27 06:43:38;;;;;;;1.07;0.80;;;18.90;49.90;;;16.91;53.44;101008.63;12224290;19;20014;-83
2022/05/27 06:47:40;;;;;;;1.15;0.73;;;18.90;49.90;;;16.65;53.54;100950.78;12241858;19;21399;-82
2022/05/27 06:51:42;;;;;;;1.52;0.88;;;18.80;50.00;;;16.72;53.46;100962.53;12239148;19;20022;-82
2022/05/27 06:55:52;;;;;;;2.05;0.80;;;18.80;50.10;;;16.77;53.92;100986.78;12239667;19;20011;-82
2022/05/27 06:59:54;;;;;;;2.00;0.80;;;18.70;50.70;;;16.79;53.85;100969.03;12238111;19;20010;-82
2022/05/27 07:03:55;;;;;;;2.13;0.95;;;18.80;50.70;;;16.73;53.62;100968.63;12239556;19;20018;-83
2022/05/27 07:07:58;;;;;;;1.92;0.90;;;18.80;50.60;;;16.93;53.56;100998.78;12238386;19;20019;-80
2022/05/27 07:11:59;;;;;;;1.98;0.90;;;18.80;50.60;;;16.93;53.94;100991.72;12236513;19;20057;-83
2022/05/27 07:16:01;;;;;;;0.68;0.65;;;18.80;50.90;;;16.97;54.02;100994.94;12241801;19;20014;-83
2022/05/27 07:20:04;;;;;;;3.38;0.70;;;18.80;50.90;;;17.06;53.80;100991.59;12238443;19;20364;-81
2022/05/27 07:24:10;;;;;;;1.33;1.10;;;18.90;51.10;;;17.20;53.81;101001.06;12238842;19;20025;-81
2022/05/27 07:28:13;;;;;;;1.42;0.90;;;19.30;51.10;;;17.13;53.85;100982.22;12239010;19;20041;-82
2022/05/27 07:32:15;;;;;;;1.45;1.08;;;19.00;51.00;;;17.29;53.74;100996.88;12239579;19;20078;-81
2022/05/27 07:36:16;;;;;;;2.35;1.15;;;19.00;50.70;;;17.31;53.80;100984.38;12239946;19;20023;-82
2022/05/27 07:40:19;;;;;;;0.75;0.73;;;18.90;50.60;;;17.49;53.82;101009.31;12239470;19;20487;-84
2022/05/27 07:44:21;;;;;;;2.53;1.20;;;19.50;50.50;;;17.60;53.68;101011.91;12238242;19;20688;-84
2022/05/27 07:48:22;;;;;;;4.75;1.40;;;19.30;50.10;;;17.66;53.49;101011.44;12236078;19;20025;-83
2022/05/27 07:52:25;;;;;;;2.83;1.00;;;19.20;49.60;;;17.64;53.30;101000.16;12238766;19;20044;-83
2022/05/27 07:56:27;;;;;;;2.55;0.98;;;19.50;49.40;;;17.72;53.23;100998.72;12234316;19;20011;-82
2022/05/27 08:00:33;;;;;;;2.08;1.00;;;19.60;49.10;;;17.82;53.05;100995.25;12238948;19;20017;-84
2022/05/27 08:04:34;;;;;;;1.95;1.00;;;19.70;49.40;;;17.98;53.01;101010.66;12232497;19;20022;-82
2022/05/27 08:08:36;;;;;;;4.47;1.23;;;19.70;49.20;;;17.92;52.44;101000.59;12236693;19;20015;-83
2022/05/27 08:12:39;;;;;;;2.25;0.95;;;19.80;47.40;;;17.90;51.92;100995.44;12230358;19;20022;-82
2022/05/27 08:16:42;;;;;;;2.35;0.90;;;19.80;46.80;;;17.66;51.89;100947.19;12234548;19;20014;-83
2022/05/27 08:20:44;;;;;;;4.63;1.63;;;19.60;46.80;;;17.85;51.88;100984.41;12224322;19;20026;-83
2022/05/27 08:24:45;;;;;;;4.22;1.45;;;19.80;46.60;;;18.04;51.81;101007.53;12224010;19;20015;-82
2022/05/27 08:28:47;;;;;;;2.20;0.93;;;19.80;46.50;;;17.95;51.68;100991.56;12227021;19;20019;-83
2022/05/27 08:32:49;;;;;;;2.70;1.55;;;19.90;46.70;;;18.22;51.32;101022.81;12234504;19;20014;-84
2022/05/27 08:41:36;;;;;;;1.92;1.13;;;20.00;45.40;;;18.46;50.77;101019.94;12236087;19;20017;-83
2022/05/27 08:45:55;;;;;;;;;;;20.10;45.20;;;18.65;50.75;101017.41;12234150;19;20014;-83
2022/05/27 08:50:37;;;;;;;2.65;0.80;;;20.20;45.50;;;18.83;50.05;101020.34;12237368;19;20003;-84
2022/05/27 08:54:46;;;;;;;3.72;1.10;;;20.40;44.30;;;18.89;49.59;101021.63;12234216;19;20018;-84
2022/05/27 09:03:45;;;;;;;2.08;1.02;;;20.70;43.50;;;19.28;48.99;101029.72;12232074;19;20052;-84
2022/05/27 09:08:04;;;;;;;3.80;1.20;;;20.80;43.50;;;19.44;48.82;101022.97;12234864;19;20009;-89
2022/05/27 09:12:13;;;;;;;2.65;0.98;;;21.00;43.10;;;19.58;48.85;101003.22;12232559;19;20014;-88
2022/05/27 09:16:56;;;;;;;3.22;1.23;;;21.10;43.10;;;19.62;48.45;101006.44;12235923;19;20022;-88
2022/05/27 09:21:21;;;;;;;3.40;1.08;;;21.20;43.30;;;19.60;48.33;101003.06;12235633;19;20027;-84
2022/05/27 09:25:49;;;;;;;3.67;0.97;;;21.40;42.30;;;19.56;47.89;101026.34;12239737;19;20035;-83
2022/05/27 09:30:18;;;;;;;3.15;1.20;;;21.40;41.60;;;19.41;47.93;101002.03;12245466;19;20062;-83
2022/05/27 09:34:20;;;;;;;2.10;1.27;;;21.20;41.40;;;19.45;48.09;101008.75;12240596;19;20408;-82
2022/05/27 09:38:34;;;;;;;1.65;0.90;;;21.40;42.00;;;19.54;47.40;100999.16;12242777;19;20014;-83
2022/05/27 09:42:49;;;;;;;4.00;1.33;;;21.40;41.20;;;19.78;47.35;101017.34;12245415;19;20098;-83
2022/05/27 09:46:52;;;;;;;3.50;1.15;;;21.40;41.30;;;19.84;47.51;100995.59;12231528;19;20090;-84
2022/05/27 09:50:59;;;;;;;2.45;1.10;;;21.40;40.90;;;20.02;47.13;101016.13;12232832;19;20085;-84
2022/05/27 09:55:35;;;;;;;3.13;1.10;;;21.60;41.00;;;20.06;46.48;101004.25;12240646;19;20022;-84
2022/05/27 09:59:46;;;;;;;7.32;1.65;;;21.70;40.10;;;20.04;46.45;100992.97;12242141;19;20011;-83
2022/05/27 10:03:59;;;;;;;3.72;1.08;;;21.80;40.80;;;20.18;46.34;100999.66;12237828;19;20022;-85
2022/05/27 10:08:01;;;;;;;1.98;0.95;;;21.90;40.10;;;19.97;46.46;100984.72;12242339;19;20011;-83
2022/05/27 10:12:03;;;;;;;1.48;0.93;;;21.80;39.60;;;19.87;45.94;100997.13;12238587;19;20010;-83
2022/05/27 10:16:11;;;;;;;2.38;1.00;;;21.90;39.60;;;19.52;46.04;100940.16;12235244;19;20074;-86
2022/05/27 10:20:17;;;;;;;4.18;1.00;;;21.80;39.90;;;19.60;46.14;100937.66;12244300;19;20019;-85
2022/05/27 10:24:43;;;;;;;1.60;0.90;;;21.80;40.00;;;20.16;45.86;100983.88;12241090;19;20026;-84
2022/05/27 10:28:54;;;;;;;3.17;1.05;;;21.90;40.00;;;20.41;45.74;100981.63;12242543;19;20600;-83
2022/05/27 10:33:23;;;;;;;1.45;0.98;;;22.00;39.90;;;20.45;45.24;100962.63;12238912;19;20015;-84
2022/05/27 10:38:12;;;;;;;1.75;1.00;;;22.10;39.60;;;20.69;45.25;100988.72;12240786;19;20070;-85
2022/05/27 10:43:01;;;;;;;3.03;1.00;;;22.20;39.80;;;20.68;44.99;100987.03;12244301;19;20026;-86
2022/05/27 10:47:13;;;;;;;2.20;1.17;;;22.30;38.90;;;20.53;44.87;100985.81;12241979;19;20027;-85
2022/05/27 10:51:58;;;;;;;2.22;1.17;;;22.40;39.10;;;20.45;44.67;101001.59;12240277;19;20699;-85
2022/05/27 11:02:04;;;;;;;2.40;1.10;;;22.10;38.90;;;20.09;45.25;100982.75;12243097;19;20490;-81
2022/05/27 11:06:38;;;;;;;3.92;1.30;;;22.10;39.00;;;20.28;44.67;101011.09;12241392;19;20027;-88
2022/05/27 11:10:58;;;;;;;1.35;1.00;;;22.10;38.80;;;20.50;44.68;100994.06;12239818;19;20018;-82
2022/05/27 11:15:20;;;;;;;7.18;1.35;;;22.10;39.30;;;20.61;44.38;100980.66;12238253;19;20065;-83
2022/05/27 11:19:49;;;;;;;3.13;1.30;;;22.30;38.90;;;20.84;44.35;100978.47;12241094;19;20007;-82
2022/05/27 11:24:07;;;;;;;4.47;0.90;;;22.40;38.80;;;20.89;43.80;100954.97;12240472;19;20010;-84
2022/05/27 11:28:59;;;;;;;3.00;1.00;;;22.50;38.90;;;20.95;43.82;100945.59;12241097;19;20025;-83
2022/05/27 11:33:44;;;;;;;1.98;1.00;;;22.60;38.60;;;21.24;43.67;100966.69;12238883;19;20046;-85
2022/05/27 11:38:18;;;;;;;1.60;0.82;;;22.80;38.20;;;20.90;43.41;100945.19;12241087;19;20090;-86
2022/05/27 11:43:23;;;;;;;5.35;1.50;;;23.10;37.90;;;20.89;43.57;100981.53;12226796;19;20019;-84
2022/05/27 11:48:06;;;;;;;5.85;1.45;;;22.80;37.50;;;20.78;43.66;100957.81;12237924;19;20468;-85
2022/05/27 11:52:39;;;;;;;2.63;1.02;;;22.70;36.90;;;20.77;42.99;100964.94;12235532;19;20038;-84
2022/05/27 11:57:04;;;;;;;4.40;1.98;;;22.60;37.30;;;20.90;42.84;100966.41;12237320;19;20018;-84
2022/05/27 12:01:24;;;;;;;2.33;1.10;;;22.60;37.60;;;21.05;42.87;100964.13;12238483;19;20014;-83
2022/05/27 12:05:57;;;;;;;2.28;1.00;;;22.70;37.10;;;21.17;42.58;100966.47;12232913;19;20024;-84
2022/05/27 12:10:30;;;;;;;3.65;1.27;;;22.80;37.30;;;21.05;42.65;100972.94;12237052;19;20014;-83
2022/05/27 12:14:41;;;;;;;11.13;1.02;;;22.80;37.20;;;20.66;43.21;100964.31;12233056;19;20014;-84
2022/05/27 12:18:54;;;;;;;3.72;1.00;;;22.70;38.50;;;20.40;43.54;100993.22;12235891;19;20010;-85
2022/05/27 12:22:58;;;;;;;3.70;1.50;;;22.70;38.40;;;20.17;43.42;100974.97;12233739;19;20018;-84
2022/05/27 12:27:02;;;;;;;3.08;0.90;;;22.40;38.60;;;20.16;43.80;100977.75;12237701;19;20475;-84
2022/05/27 12:31:06;;;;;;;2.30;0.90;;;22.30;38.40;;;20.19;43.51;100978.28;12231704;19;20045;-83
2022/05/27 12:35:40;;;;;;;1.58;0.90;;;22.20;38.60;;;20.12;43.49;100958.66;12233866;19;20018;-84
2022/05/27 12:39:44;;;;;;;7.80;1.10;;;22.10;38.30;;;20.20;43.45;100942.00;12232853;19;20018;-84
2022/05/27 12:44:00;;;;;;;3.67;1.10;;;22.10;38.70;;;20.26;43.36;100929.03;12234254;19;20007;-83
2022/05/27 12:48:02;;;;;;;1.38;0.95;;;22.00;38.40;;;20.36;42.98;100914.91;12233788;19;20010;-84
2022/05/27 12:52:27;;;;;;;2.03;1.02;;;22.20;37.90;;;20.73;42.75;100930.88;12231253;19;20505;-83
2022/05/27 13:01:00;;;;;;;2.78;1.10;;;22.30;37.20;;;20.98;42.43;100934.66;12233705;19;20333;-82
2022/05/27 13:05:04;;;;;;;2.70;0.85;;;22.50;37.40;;;20.91;42.27;100938.91;12231001;19;20051;-82
2022/05/27 13:09:36;;;;;;;2.58;1.10;;;22.60;37.30;;;20.88;42.49;100947.16;12231895;19;20028;-84
2022/05/27 13:13:40;;;;;;;2.28;0.75;;;22.60;37.20;;;20.52;42.84;100958.44;12229765;19;20002;-83
2022/05/27 13:17:45;;;;;;;1.80;1.00;;;22.40;38.70;;;20.14;43.98;100929.31;12233177;19;20030;-81
2022/05/27 13:21:57;;;;;;;1.20;1.05;;;22.30;39.90;;;20.06;43.84;100928.22;12232081;19;20029;-82
2022/05/27 13:26:14;;;;;;;2.53;1.13;;;22.20;39.50;;;20.14;44.04;100953.19;12233578;19;20014;-82
2022/05/27 13:30:22;;;;;;;2.50;1.10;;;22.10;39.20;;;20.22;43.78;100945.34;12231127;19;20023;-82
2022/05/27 13:35:01;;;;;;;2.58;0.80;;;22.10;39.30;;;19.99;43.48;100873.25;12231613;19;20022;-81
2022/05/27 13:39:10;;;;;;;5.18;1.48;;;22.10;38.90;;;20.49;43.44;100926.88;12234020;19;20078;-82
2022/05/27 13:43:19;;;;;;;3.83;1.08;;;22.10;39.50;;;20.71;43.08;100911.59;12230875;19;20014;-81
2022/05/27 13:47:26;;;;;;;3.45;0.93;;;22.10;38.60;;;20.69;43.05;100877.25;12232044;19;20034;-82
2022/05/27 13:51:28;;;;;;;2.45;1.20;;;22.40;38.30;;;20.90;42.61;100894.75;12226899;19;20095;-82
2022/05/27 13:55:30;;;;;;;2.22;0.93;;;22.50;38.00;;;20.91;42.81;100899.09;12227803;19;20074;-82
2022/05/27 13:59:52;;;;;;;2.95;0.95;;;22.60;37.90;;;20.83;42.09;100902.47;12230077;19;20018;-82
2022/05/27 14:04:18;;;;;;;2.05;1.15;;;22.50;37.30;;;20.80;41.86;100957.69;12229413;19;20014;-82
2022/05/27 14:08:19;;;;;;;6.30;1.52;;;22.60;37.30;;;20.43;42.97;100955.78;12233731;19;20034;-81
2022/05/27 14:12:21;;;;;;;1.92;0.90;;;22.50;38.10;;;20.01;43.15;100925.16;12239309;19;20029;-82
2022/05/27 14:16:29;;;;;;;3.10;0.85;;;22.20;38.30;;;19.99;43.27;100936.88;12241767;19;20508;-81
2022/05/27 14:24:59;;;;;;;2.13;0.73;;;22.00;37.80;;;20.00;42.80;100888.19;12239273;19;20091;-81
2022/05/27 14:29:02;;;;;;;3.03;1.20;;;21.90;37.90;;;20.11;42.76;100872.94;12241913;19;20364;-82
2022/05/27 14:33:32;;;;;;;2.30;0.88;;;21.90;37.60;;;20.34;42.24;100883.22;12240022;19;20490;-82
2022/05/27 14:37:47;;;;;;;2.08;1.08;;;21.90;37.30;;;20.60;42.02;100909.13;12240024;19;20078;-82
2022/05/27 14:41:49;;;;;;;2.28;0.95;;;22.00;37.10;;;20.77;42.01;100903.06;12240386;19;20536;-82
2022/05/27 14:45:55;;;;;;;2.60;0.80;;;22.30;36.80;;;20.82;41.22;100886.69;12241537;19;20010;-82
2022/05/27 14:49:59;;;;;;;;;;;22.30;35.50;;;20.96;41.31;100923.38;12237425;19;20364;-82
2022/05/27 14:54:34;;;;;;;3.20;0.95;;;22.50;36.60;;;20.85;41.22;100936.84;12240909;19;19945;-81
2022/05/27 14:58:37;;;;;;;1.30;0.87;;;22.60;36.10;;;20.88;41.03;100944.53;12239900;19;20014;-81
2022/05/27 15:02:38;;;;;;;2.08;0.80;;;22.60;36.20;;;20.91;41.08;100938.91;12240427;19;20022;-81
2022/05/27 15:06:46;;;;;;;2.25;1.00;;;22.60;36.10;;;20.83;40.99;100920.22;12238491;19;20018;-81
2022/05/27 15:11:14;;;;;;;2.75;1.30;;;22.60;36.20;;;20.58;40.65;100921.69;12236573;19;20025;-81
2022/05/27 15:15:32;;;;;;;3.83;1.10;;;22.60;35.80;;;20.55;40.85;100944.91;12236492;19;20014;-81
2022/05/27 15:19:45;;;;;;;3.65;0.90;;;22.50;35.90;;;20.36;40.79;100904.28;12241652;19;20058;-82
2022/05/27 15:23:58;;;;;;;1.60;0.90;;;22.30;35.80;;;20.54;40.06;100934.44;12237673;19;20022;-82
2022/05/27 15:36:44;;;;;;;2.78;1.23;;;22.30;36.00;;;20.39;40.50;100925.22;12238318;19;20106;-81
2022/05/27 15:40:47;;;;;;;5.22;1.23;;;22.30;36.00;;;20.30;40.38;100919.78;12237639;19;20409;-82
2022/05/27 15:44:48;;;;;;;6.40;1.10;;;22.30;36.00;;;20.38;40.59;100923.56;12233395;19;20006;-81
2022/05/27 15:48:50;;;;;;;2.80;0.88;;;22.30;35.60;;;20.15;40.47;100920.41;12234368;19;20101;-82
2022/05/27 15:52:52;;;;;;;5.13;1.13;;;22.10;35.50;;;20.26;40.34;100947.59;12237628;19;20007;-81
2022/05/27 15:56:53;;;;;;;2.13;0.90;;;22.00;35.90;;;19.91;40.50;100955.31;12236391;19;20018;-82
2022/05/27 16:00:56;;;;;;;1.55;0.65;;;22.00;36.00;;;19.65;40.97;100971.69;12235118;19;20014;-82
2022/05/27 16:04:57;;;;;;;3.25;0.90;;;21.80;36.60;;;19.39;41.55;101011.97;12239847;19;20018;-83
2022/05/27 16:08:59;;;;;;;2.60;0.65;;;21.70;37.60;;;19.12;42.30;101001.97;12242014;19;20515;-82
2022/05/27 16:13:03;;;;;;;1.23;0.65;;;21.40;38.10;;;18.93;42.30;100983.34;12240784;19;20538;-82
2022/05/27 16:21:24;;;;;;;1.38;0.52;;;21.00;38.50;;;18.76;42.60;100976.84;12243017;19;20010;-82
2022/05/27 16:25:30;;;;;;;1.55;0.77;;;20.90;38.50;;;18.68;42.58;100976.63;12235926;19;20364;-82
2022/05/27 16:29:31;;;;;;;3.25;1.20;;;20.70;38.20;;;18.64;42.41;100977.88;12238931;19;20407;-82
2022/05/27 16:33:33;;;;;;;5.65;0.90;;;20.70;38.30;;;18.35;42.34;100958.22;12236198;19;20417;-81
2022/05/27 16:37:35;;;;;;;1.42;0.60;;;20.60;38.30;;;18.39;42.35;100985.25;12239673;19;20031;-82
2022/05/27 16:41:37;;;;;;;2.47;0.70;;;20.50;38.00;;;18.41;42.44;101011.56;12237791;19;20550;-82
2022/05/27 16:45:39;;;;;;;1.27;0.65;;;20.50;38.00;;;18.37;42.58;101008.34;12238890;19;20040;-82
2022/05/27 16:49:44;;;;;;;4.43;0.95;;;20.30;38.00;;;18.08;42.58;100979.84;12239016;19;20373;-82
2022/05/27 16:53:48;;;;;;;2.65;0.55;;;20.30;38.20;;;18.17;42.55;100990.63;12236663;19;20041;-81
2022/05/27 16:57:51;;;;;;;1.67;0.60;;;20.20;38.20;;;17.77;42.71;100927.81;12238697;19;20011;-82
2022/05/27 17:01:53;;;;;;;1.10;0.68;;;20.00;38.10;;;17.99;42.71;100964.78;12239305;19;20074;-81
2022/05/27 17:05:54;;;;;;;3.10;1.15;;;20.10;38.50;;;18.21;42.51;100984.16;12240916;19;20006;-82
2022/05/27 17:09:58;;;;;;;0.52;0.50;;;20.00;38.30;;;18.08;42.59;100964.00;12237745;19;20512;-82
2022/05/27 17:14:00;;;;;;;1.00;0.60;;;19.90;38.20;;;18.15;42.51;100969.63;12237888;19;20014;-81
2022/05/27 17:18:02;;;;;;;1.48;0.57;;;20.10;38.20;;;18.13;42.31;100980.31;12238440;19;20442;-82
2022/05/27 17:22:03;;;;;;;1.90;0.75;;;20.10;38.10;;;18.05;42.42;101006.56;12236681;19;20120;-82
2022/05/27 17:26:05;;;;;;;3.88;0.80;;;20.00;38.10;;;18.12;42.47;101028.88;12237591;19;20006;-82
2022/05/27 17:30:07;;;;;;;2.72;0.90;;;20.00;37.90;;;17.96;42.26;101002.03;12238975;19;20019;-81
2022/05/27 17:34:09;;;;;;;11.82;1.88;;;20.00;37.90;;;17.92;42.25;100993.50;12235738;19;20386;-82
2022/05/27 17:38:10;;;;;;;3.72;0.82;;;20.00;37.60;;;17.92;42.29;100995.31;12238067;19;20453;-80
2022/05/27 17:42:12;;;;;;;1.05;0.85;;;19.80;37.50;;;17.79;42.27;100989.34;12239271;19;20023;-81
2022/05/27 17:46:14;;;;;;;1.33;0.80;;;19.90;37.50;;;17.82;42.21;101021.66;12248721;19;20037;-81
2022/05/27 17:54:36;;;;;;;2.85;0.90;;;19.70;37.20;;;17.66;42.00;101043.16;12247958;19;20074;-82
2022/05/27 17:58:38;;;;;;;4.85;1.55;;;19.70;37.20;;;17.54;42.08;101051.19;12249351;19;20053;-81
2022/05/27 18:02:40;;;;;;;2.50;0.90;;;19.70;37.60;;;17.21;42.22;101022.06;12249050;19;20022;-81
2022/05/27 18:06:42;;;;;;;4.65;1.00;;;19.50;37.80;;;17.20;42.55;101077.59;12247799;19;20031;-81